Time,TemperatureF,DewpointF,PressureIn,WindDirection,WindDirectionDegrees,WindSpeedMPH,WindSpeedGustMPH,Humidity,HourlyPrecipIn,Conditions,Clouds,dailyrainin,SolarRadiationWatts/m^2,SoftwareType,DateUTC
2013-04-07 00:00:00,39.3,26.1,30.24,SE,133,0.0,4.0,59,0.00,-RA,OVC,0.00,0.0,WeatherDisplay:10.37,2013-04-06 23:00:00,
2013-04-07 01:00:00,38.7,27.5,30.23,SSE,157,0.0,4.0,64,0.00,-RA,OVC,0.00,0.0,WeatherDisplay:10.37,2013-04-07 00:00:00,
2013-04-07 01:30:00,38.3,27.9,30.23,SSE,157,0.0,3.0,66,0.00,-RA,OVC,0.00,0.0,WeatherDisplay:10.37,2013-04-07 00:30:00,
2013-04-07 02:00:00,37.9,28.2,30.22,SSE,157,0.0,2.0,68,0.00,-RA,OVC,0.00,0.0,WeatherDisplay:10.37,2013-04-07 01:00:00,
2013-04-07 02:30:00,37.8,29.2,30.21,SSE,157,0.0,2.0,71,0.00,-RA,OVC,0.00,0.0,WeatherDisplay:10.37,2013-04-07 01:30:00,
2013-04-07 03:00:00,37.5,29.6,30.21,SSE,157,0.0,3.0,73,0.00,-RA,OVC,0.00,0.0,WeatherDisplay:10.37,2013-04-07 02:00:00,
2013-04-07 03:30:00,36.1,29.6,30.20,SSE,157,0.0,3.0,77,0.00,-RA,OVC,0.00,0.0,WeatherDisplay:10.37,2013-04-07 02:30:00,
2013-04-07 04:00:00,36.0,29.4,30.19,SSE,157,0.0,1.0,77,0.00,-RA,OVC,0.00,0.0,WeatherDisplay:10.37,2013-04-07 03:00:00,
2013-04-07 04:30:00,35.6,29.4,30.18,SSE,157,0.0,3.0,78,0.00,-RA,OVC,0.00,0.0,WeatherDisplay:10.37,2013-04-07 03:30:00,
2013-04-07 05:00:00,34.2,29.0,30.17,SSE,157,0.0,0.0,81,0.00,-RA,OVC,0.00,0.0,WeatherDisplay:10.37,2013-04-07 04:00:00,
2013-04-07 05:30:00,33.9,28.6,30.17,SSE,157,0.0,2.0,81,0.00,-RA,OVC,0.00,0.0,WeatherDisplay:10.37,2013-04-07 04:30:00,
2013-04-07 06:00:00,32.5,28.2,30.17,SSE,157,0.0,0.0,84,0.00,-RA,OVC,0.00,0.0,WeatherDisplay:10.37,2013-04-07 05:00:00,
2013-04-07 06:30:00,31.8,28.1,30.17,SSE,157,0.0,0.0,86,0.00,-RA,OVC,0.00,12.0,WeatherDisplay:10.37,2013-04-07 05:30:00,
2013-04-07 07:00:00,33.3,29.8,30.16,SSE,157,1.0,2.0,87,0.00,-RA,OVC,0.00,39.0,WeatherDisplay:10.37,2013-04-07 06:00:00,
2013-04-07 07:30:00,35.4,30.7,30.16,SSE,157,0.0,2.0,83,0.00,-RA,OVC,0.00,114.0,WeatherDisplay:10.37,2013-04-07 06:30:00,
2013-04-07 08:00:00,37.5,31.2,30.16,SSE,157,0.0,3.0,78,0.00,-RA,OVC,0.00,195.0,WeatherDisplay:10.37,2013-04-07 07:00:00,
2013-04-07 08:30:00,39.7,32.7,30.15,SSE,167,2.0,5.0,76,0.00,-RA,OVC,0.00,257.0,WeatherDisplay:10.37,2013-04-07 07:30:00,
2013-04-07 09:00:00,41.2,33.2,30.16,WSW,237,1.0,5.0,73,0.00,-RA,OVC,0.00,355.0,WeatherDisplay:10.37,2013-04-07 08:00:00,
2013-04-07 09:30:00,42.3,32.8,30.15,West,277,0.0,6.0,69,0.00,-RA,OVC,0.00,401.0,WeatherDisplay:10.37,2013-04-07 08:30:00,
2013-04-07 10:00:00,43.6,31.4,30.15,WNW,285,0.0,4.0,62,0.00,-RA,OVC,0.00,418.0,WeatherDisplay:10.37,2013-04-07 09:00:00,
2013-04-07 10:30:00,44.2,31.6,30.14,WNW,302,0.0,5.0,61,0.00,-RA,OVC,0.00,448.0,WeatherDisplay:10.37,2013-04-07 09:30:00,
2013-04-07 11:00:00,44.5,28.0,30.14,South,178,1.0,8.0,52,0.00,-RA,OVC,0.00,424.0,WeatherDisplay:10.37,2013-04-07 10:00:00,
2013-04-07 11:30:00,45.3,27.7,30.13,South,174,1.0,7.0,50,0.00,-RA,OVC,0.00,575.0,WeatherDisplay:10.37,2013-04-07 10:30:00,
2013-04-07 12:00:00,46.9,27.7,30.11,SSE,157,0.0,6.0,47,0.00,-RA,OVC,0.00,650.0,WeatherDisplay:10.37,2013-04-07 11:00:00,
2013-04-07 12:30:00,47.3,25.9,30.09,SSE,155,2.0,12.0,43,0.00,-RA,OVC,0.00,701.0,WeatherDisplay:10.37,2013-04-07 11:30:00,
2013-04-07 13:00:00,48.0,25.4,30.08,SE,146,3.0,10.0,41,0.00,-RA,OVC,0.00,710.0,WeatherDisplay:10.37,2013-04-07 12:00:00,
2013-04-07 13:30:00,48.4,24.6,30.05,SSE,164,2.0,13.0,39,0.00,-RA,OVC,0.00,756.0,WeatherDisplay:10.37,2013-04-07 12:30:00,
2013-04-07 14:00:00,49.4,23.5,30.03,SSE,150,5.0,12.0,36,0.00,-RA,OVC,0.00,647.0,WeatherDisplay:10.37,2013-04-07 13:00:00,
2013-04-07 14:30:00,49.9,22.6,30.01,SSE,166,0.0,13.0,34,0.00,-RA,OVC,0.00,608.0,WeatherDisplay:10.37,2013-04-07 13:30:00,
2013-04-07 15:00:00,50.3,23.0,30.00,SE,141,5.0,13.0,34,0.00,-RA,OVC,0.00,408.0,WeatherDisplay:10.37,2013-04-07 14:00:00,
2013-04-07 15:30:00,49.8,23.2,29.99,SSE,147,0.0,14.0,35,0.00,-RA,OVC,0.00,464.0,WeatherDisplay:10.37,2013-04-07 14:30:00,
2013-04-07 16:00:00,50.3,25.6,29.97,South,173,5.0,12.0,38,0.00,-RA,OVC,0.00,359.0,WeatherDisplay:10.37,2013-04-07 15:00:00,
2013-04-07 16:30:00,50.1,27.3,29.96,SSE,153,1.0,12.0,41,0.00,-RA,OVC,0.00,301.0,WeatherDisplay:10.37,2013-04-07 15:30:00,
2013-04-07 17:00:00,49.8,27.6,29.95,SSE,160,6.0,12.0,42,0.00,-RA,OVC,0.00,271.0,WeatherDisplay:10.37,2013-04-07 16:00:00,
2013-04-07 17:30:00,50.0,28.3,29.94,South,169,2.0,14.0,43,0.00,-RA,OVC,0.00,225.0,WeatherDisplay:10.37,2013-04-07 16:30:00,
2013-04-07 18:30:00,48.3,27.3,29.92,SSE,153,6.0,12.0,44,0.00,-RA,OVC,0.00,81.0,WeatherDisplay:10.37,2013-04-07 17:30:00,
2013-04-07 19:00:00,47.5,27.7,29.92,SSE,159,5.0,14.0,46,0.00,-RA,OVC,0.00,53.0,WeatherDisplay:10.37,2013-04-07 18:00:00,
2013-04-07 19:30:00,46.6,27.4,29.92,SSE,156,3.0,12.0,47,0.00,-RA,OVC,0.00,11.0,WeatherDisplay:10.37,2013-04-07 18:30:00,
2013-04-07 20:00:00,45.9,26.7,29.92,SE,144,0.0,12.0,47,0.00,-RA,OVC,0.00,0.0,WeatherDisplay:10.37,2013-04-07 19:00:00,
2013-04-07 20:30:00,45.1,30.7,29.91,ESE,119,0.0,6.0,57,0.00,-RA,OVC,0.00,0.0,WeatherDisplay:10.37,2013-04-07 19:30:00,
2013-04-07 21:30:00,42.1,33.3,29.90,ESE,107,1.0,6.0,71,0.00,-RA,OVC,0.00,0.0,WeatherDisplay:10.37,2013-04-07 20:30:00,
2013-04-07 22:00:00,41.2,33.2,29.89,East,101,0.0,9.0,73,0.00,-RA,OVC,0.00,0.0,WeatherDisplay:10.37,2013-04-07 21:00:00,
2013-04-07 22:30:00,40.7,32.0,29.88,ESE,123,1.0,10.0,71,0.00,-RA,OVC,0.00,0.0,WeatherDisplay:10.37,2013-04-07 21:30:00,
2013-04-07 23:00:00,40.4,32.5,29.87,SE,126,1.0,10.0,73,0.00,-RA,OVC,0.00,0.0,WeatherDisplay:10.37,2013-04-07 22:00:00,
2013-04-07 23:30:00,40.1,32.8,29.86,ESE,108,1.0,12.0,75,0.00,-RA,OVC,0.00,0.0,WeatherDisplay:10.37,2013-04-07 22:30:00,